Time;durP1;ratioP1;P1;durP2;ratioP2;P2;SDS_P1;SDS_P2;PMS_P1;PMS_P2;Temp;Humidity;BMP_temperature;BMP_pressure;BME280_temperature;BME280_humidity;BME280_pressure;Samples;Min_cycle;Max_cycle;Signal;HPM_P1;HPM_P2
2022/11/02 00:01:20;;;;;;;;;;;15.50;99.90;;;;;;6251681;22;19926;-82
2022/11/02 00:03:46;;;;;;;;;;;16.10;99.90;;;;;;6249460;22;19999;-82
2022/11/02 00:06:11;;;;;;;;;;;14.20;99.90;;;;;;6277272;22;19959;-82
2022/11/02 00:08:37;;;;;;;;;;;13.10;99.90;;;;;;6224718;22;20002;-82
2022/11/02 00:11:02;;;;;;;;;;;13.30;99.90;;;;;;6277829;22;20244;-82
2022/11/02 00:13:28;;;;;;;;;;;12.90;99.90;;;;;;6251251;22;19924;-82
2022/11/02 00:15:53;;;;;;;;;;;14.30;99.90;;;;;;6250840;22;19919;-82
2022/11/02 00:18:19;;;;;;;;;;;12.80;99.90;;;;;;6224734;22;19973;-82
2022/11/02 00:20:45;;;;;;;;;;;12.80;99.90;;;;;;6224924;22;19919;-82
2022/11/02 00:23:12;;;;;;;;;;;12.70;99.90;;;;;;6250347;22;19926;-82
2022/11/02 00:25:39;;;;;;;;;;;16.20;99.90;;;;;;6249701;22;19923;-82
2022/11/02 00:28:04;;;;;;;;;;;15.90;99.90;;;;;;6250345;22;19919;-82
2022/11/02 00:30:30;;;;;;;;;;;12.70;99.90;;;;;;6225453;22;20224;-83
2022/11/02 00:32:56;;;;;;;;;;;12.70;99.90;;;;;;6224976;22;19926;-83
2022/11/02 00:35:22;;;;;;;;;;;12.70;99.90;;;;;;6250637;22;19919;-82
2022/11/02 00:37:47;;;;;;;;;;;12.70;99.90;;;;;;6249945;22;20293;-82
2022/11/02 00:40:13;;;;;;;;;;;13.30;99.90;;;;;;6250198;22;20364;-83
2022/11/02 00:42:38;;;;;;;;;;;12.70;99.90;;;;;;6278597;22;19996;-82
2022/11/02 00:45:04;;;;;;;;;;;12.70;99.90;;;;;;6277475;22;19919;-82
2022/11/02 00:47:30;;;;;;;;;;;12.70;99.90;;;;;;6277481;22;19998;-82
2022/11/02 00:49:58;;;;;;;;;;;12.50;99.90;;;;;;6277319;22;19954;-83
2022/11/02 00:52:24;;;;;;;;;;;16.10;99.90;;;;;;6277273;22;20252;-82
2022/11/02 00:54:50;;;;;;;;;;;12.60;99.90;;;;;;6250125;22;19997;-82
2022/11/02 00:57:16;;;;;;;;;;;12.60;99.90;;;;;;6277287;22;19970;-82
2022/11/02 00:59:41;;;;;;;;;;;12.50;99.90;;;;;;6277374;22;19953;-83
2022/11/02 01:02:10;;;;;;;;;;;12.60;99.90;;;;;;6277984;22;19927;-83
2022/11/02 01:04:36;;;;;;;;;;;12.60;99.90;;;;;;6250152;22;20244;-82
2022/11/02 01:07:05;;;;;;;;;;;12.50;99.90;;;;;;6275386;22;19945;-82
2022/11/02 01:09:32;;;;;;;;;;;12.90;99.90;;;;;;6224745;22;20296;-82
2022/11/02 01:11:57;;;;;;;;;;;16.40;99.90;;;;;;6250516;22;19923;-83
2022/11/02 01:14:26;;;;;;;;;;;13.90;99.90;;;;;;6225517;22;19945;-82
2022/11/02 01:16:51;;;;;;;;;;;12.60;99.90;;;;;;6224430;22;20291;-82
2022/11/02 01:19:17;;;;;;;;;;;12.40;99.90;;;;;;6249739;22;19923;-82
2022/11/02 01:21:45;;;;;;;;;;;15.90;99.90;;;;;;6249801;22;19920;-82
2022/11/02 01:24:11;;;;;;;;;;;12.70;99.90;;;;;;6250268;22;19926;-83
2022/11/02 01:26:36;;;;;;;;;;;12.90;99.90;;;;;;6224725;22;19923;-82
2022/11/02 01:29:02;;;;;;;;;;;15.00;99.90;;;;;;6249475;22;19920;-82
2022/11/02 01:31:27;;;;;;;;;;;12.80;99.90;;;;;;6250190;22;19919;-82
2022/11/02 01:33:53;;;;;;;;;;;12.90;99.90;;;;;;6250019;22;19994;-82
2022/11/02 01:36:22;;;;;;;;;;;13.00;99.90;;;;;;6277104;22;20244;-82
2022/11/02 01:38:48;;;;;;;;;;;15.10;99.90;;;;;;6249622;22;19919;-83
2022/11/02 01:41:14;;;;;;;;;;;13.00;99.90;;;;;;6277096;22;19923;-82
2022/11/02 01:43:40;;;;;;;;;;;16.40;99.90;;;;;;6250660;22;19919;-82
2022/11/02 01:46:09;;;;;;;;;;;12.90;99.90;;;;;;6250160;22;20252;-82
2022/11/02 01:48:46;;;;;;;;;;;16.80;99.90;;;;;;6249888;22;19919;-83
2022/11/02 01:51:19;;;;;;;;;;;13.00;99.90;;;;;;6224222;22;19923;-82
2022/11/02 01:53:46;;;;;;;;;;;13.00;99.90;;;;;;6249077;22;20334;-82
2022/11/02 01:56:14;;;;;;;;;;;14.40;99.90;;;;;;6277455;22;19919;-82
2022/11/02 01:58:40;;;;;;;;;;;16.10;99.90;;;;;;6224969;22;20311;-83
2022/11/02 02:01:05;;;;;;;;;;;10.50;99.90;;;;;;6224900;22;19945;-82
2022/11/02 02:03:34;;;;;;;;;;;13.00;99.90;;;;;;6277176;22;19982;-82
2022/11/02 02:06:08;;;;;;;;;;;12.90;99.90;;;;;;6251001;22;20243;-82
2022/11/02 02:08:35;;;;;;;;;;;13.30;99.90;;;;;;6250159;22;19926;-82
2022/11/02 02:11:01;;;;;;;;;;;13.20;99.90;;;;;;6249612;22;20326;-82
2022/11/02 02:13:29;;;;;;;;;;;13.00;99.90;;;;;;6249770;22;19923;-82
2022/11/02 02:16:13;;;;;;;;;;;13.70;99.90;;;;;;6250381;22;20213;-82
2022/11/02 02:18:47;;;;;;;;;;;12.90;99.90;;;;;;6223914;22;19915;-82
2022/11/02 02:21:25;;;;;;;;;;;12.90;99.90;;;;;;6250001;22;19973;-83
2022/11/02 02:24:09;;;;;;;;;;;13.20;99.90;;;;;;6249924;22;19919;-82
2022/11/02 02:26:38;;;;;;;;;;;12.90;99.90;;;;;;6249531;22;20434;-82
2022/11/02 02:29:12;;;;;;;;;;;13.00;99.90;;;;;;6249528;22;20291;-82
2022/11/02 02:31:48;;;;;;;;;;;12.80;99.90;;;;;;6250031;22;19998;-82
2022/11/02 02:34:23;;;;;;;;;;;12.90;99.90;;;;;;6277098;22;19923;-82
2022/11/02 02:36:51;;;;;;;;;;;12.90;99.90;;;;;;6225099;22;20011;-83
2022/11/02 02:39:26;;;;;;;;;;;14.80;99.90;;;;;;6250612;22;19998;-83
2022/11/02 02:42:00;;;;;;;;;;;14.50;99.90;;;;;;6281219;22;19927;-83
2022/11/02 02:44:28;;;;;;;;;;;12.90;99.90;;;;;;6253690;22;19919;-82
2022/11/02 02:47:00;;;;;;;;;;;12.70;99.90;;;;;;6254387;22;19920;-82
2022/11/02 02:49:41;;;;;;;;;;;12.80;99.90;;;;;;6280431;22;19966;-82
2022/11/02 02:52:08;;;;;;;;;;;15.80;99.90;;;;;;6226788;22;19969;-82
2022/11/02 02:54:39;;;;;;;;;;;12.80;99.90;;;;;;6226027;22;19919;-82
2022/11/02 02:57:07;;;;;;;;;;;12.60;99.90;;;;;;6226091;22;19990;-82
2022/11/02 02:59:36;;;;;;;;;;;12.50;99.90;;;;;;6251249;22;20345;-82
2022/11/02 03:02:04;;;;;;;;;;;10.70;99.90;;;;;;6278214;22;19943;-82
2022/11/02 03:04:29;;;;;;;;;;;12.60;99.90;;;;;;6225571;22;19926;-82
2022/11/02 03:06:59;;;;;;;;;;;12.60;99.90;;;;;;6250810;22;19915;-83
2022/11/02 03:09:28;;;;;;;;;;;12.50;99.90;;;;;;6251459;22;19923;-82
2022/11/02 03:12:00;;;;;;;;;;;12.50;99.90;;;;;;6225415;22;19919;-82
2022/11/02 03:14:37;;;;;;;;;;;13.10;99.90;;;;;;6278537;22;19919;-82
2022/11/02 03:17:14;;;;;;;;;;;12.50;99.90;;;;;;6226188;22;19919;-82
2022/11/02 03:19:49;;;;;;;;;;;12.80;99.90;;;;;;6252160;22;19999;-82
2022/11/02 03:22:30;;;;;;;;;;;12.40;99.90;;;;;;6251554;22;19951;-82
2022/11/02 03:24:59;;;;;;;;;;;12.30;99.90;;;;;;6225786;22;19915;-82
2022/11/02 03:27:29;;;;;;;;;;;12.40;99.90;;;;;;6251087;22;19945;-82
2022/11/02 03:30:03;;;;;;;;;;;12.10;99.90;;;;;;6251086;22;19927;-82
2022/11/02 03:32:35;;;;;;;;;;;11.40;99.90;;;;;;6278302;22;20243;-82
2022/11/02 03:35:03;;;;;;;;;;;14.70;99.90;;;;;;6277907;22;20311;-82
2022/11/02 03:37:33;;;;;;;;;;;14.80;99.90;;;;;;6278155;22;19919;-82
2022/11/02 03:40:05;;;;;;;;;;;15.10;99.90;;;;;;6278457;22;20282;-82
2022/11/02 03:42:32;;;;;;;;;;;13.40;99.90;;;;;;6226063;22;19951;-82
2022/11/02 03:45:00;;;;;;;;;;;10.90;99.90;;;;;;6277745;22;20355;-82
2022/11/02 03:47:29;;;;;;;;;;;14.60;99.90;;;;;;6251212;22;19919;-82
2022/11/02 03:49:57;;;;;;;;;;;13.60;99.90;;;;;;6225141;22;19926;-82
2022/11/02 03:52:26;;;;;;;;;;;8.90;99.90;;;;;;6277564;22;19923;-82
2022/11/02 03:55:08;;;;;;;;;;;13.60;99.90;;;;;;6225356;22;19922;-82
2022/11/02 03:57:40;;;;;;;;;;;11.50;99.90;;;;;;6225608;22;19919;-82
2022/11/02 04:00:10;;;;;;;;;;;11.50;99.90;;;;;;6277923;22;19990;-82
2022/11/02 04:02:37;;;;;;;;;;;11.60;99.90;;;;;;6225370;22;19989;-82
2022/11/02 04:05:03;;;;;;;;;;;13.80;99.90;;;;;;6224442;22;20349;-82
2022/11/02 04:08:19;;;;;;;;;;;12.00;99.90;;;;;;6225745;22;19919;-82
2022/11/02 04:10:17;;;;;;;;;;;11.60;99.90;;;;;;6250747;22;19929;-82
2022/11/02 04:15:27;;;;;;;;;;;11.40;99.90;;;;;;6278183;22;20002;-82
2022/11/02 04:20:36;;;;;;;;;;;14.20;99.90;;;;;;6278615;22;19919;-82
2022/11/02 04:25:51;;;;;;;;;;;11.60;99.90;;;;;;6278331;22;19919;-82
2022/11/02 04:28:16;;;;;;;;;;;14.50;99.90;;;;;;6251606;22;19919;-82
2022/11/02 04:30:42;;;;;;;;;;;11.30;99.90;;;;;;6278947;22;19966;-82
2022/11/02 04:35:52;;;;;;;;;;;14.10;99.90;;;;;;6255085;22;20241;-82
2022/11/02 04:43:47;;;;;;;;;;;11.20;99.90;;;;;;6251284;22;20415;-82
2022/11/02 04:46:12;;;;;;;;;;;11.20;99.90;;;;;;6251813;22;19920;-82
2022/11/02 04:48:38;;;;;;;;;;;11.30;99.90;;;;;;6250128;22;19950;-82
2022/11/02 04:51:03;;;;;;;;;;;11.50;99.90;;;;;;6250629;22;20271;-81
2022/11/02 04:53:32;;;;;;;;;;;11.20;99.90;;;;;;6275685;22;20382;-82
2022/11/02 04:55:58;;;;;;;;;;;15.30;99.90;;;;;;6250818;22;19919;-82
2022/11/02 04:58:23;;;;;;;;;;;14.50;99.90;;;;;;6277442;22;19919;-81
2022/11/02 05:00:52;;;;;;;;;;;11.40;99.90;;;;;;6251796;22;19919;-82
2022/11/02 05:03:17;;;;;;;;;;;11.40;99.90;;;;;;6224643;22;20348;-82
2022/11/02 05:05:43;;;;;;;;;;;11.40;99.90;;;;;;6249912;22;20320;-82
2022/11/02 05:08:08;;;;;;;;;;;11.40;99.90;;;;;;6250464;22;20332;-82
2022/11/02 05:10:34;;;;;;;;;;;11.30;99.90;;;;;;6250336;22;19969;-82
2022/11/02 05:13:00;;;;;;;;;;;15.70;99.90;;;;;;6225346;22;19954;-82
2022/11/02 05:15:25;;;;;;;;;;;15.00;99.90;;;;;;6250371;22;19961;-82
2022/11/02 05:17:51;;;;;;;;;;;13.50;99.90;;;;;;6250638;22;20191;-81
2022/11/02 05:20:17;;;;;;;;;;;11.50;99.90;;;;;;6225461;22;19950;-81
2022/11/02 05:22:42;;;;;;;;;;;11.20;99.90;;;;;;6249954;22;19990;-82
2022/11/02 05:25:08;;;;;;;;;;;14.90;99.90;;;;;;6225141;22;19919;-81
2022/11/02 05:27:34;;;;;;;;;;;13.50;99.90;;;;;;6250332;22;19930;-81
2022/11/02 05:29:59;;;;;;;;;;;14.10;99.90;;;;;;6250524;22;19920;-82
2022/11/02 05:32:28;;;;;;;;;;;13.80;99.90;;;;;;6250333;22;20260;-82
2022/11/02 05:34:54;;;;;;;;;;;11.40;99.90;;;;;;6277201;22;19919;-82
2022/11/02 05:37:20;;;;;;;;;;;11.80;99.90;;;;;;6250211;22;20334;-82
2022/11/02 05:39:46;;;;;;;;;;;11.40;99.90;;;;;;6277056;22;20328;-82
2022/11/02 05:42:11;;;;;;;;;;;12.10;99.90;;;;;;6250137;22;19945;-82
2022/11/02 05:44:37;;;;;;;;;;;15.50;99.90;;;;;;6224433;22;19923;-83
2022/11/02 05:47:03;;;;;;;;;;;11.60;99.90;;;;;;6224517;22;19950;-83
2022/11/02 05:49:28;;;;;;;;;;;11.50;99.90;;;;;;6276807;22;19920;-82
2022/11/02 05:51:54;;;;;;;;;;;10.80;99.90;;;;;;6225312;22;19942;-83
2022/11/02 05:54:23;;;;;;;;;;;11.40;99.90;;;;;;6250325;22;19923;-83
2022/11/02 05:56:48;;;;;;;;;;;11.30;99.90;;;;;;6250259;22;19942;-83
2022/11/02 05:59:14;;;;;;;;;;;15.20;99.90;;;;;;6224388;22;19923;-83
2022/11/02 06:01:42;;;;;;;;;;;11.60;99.90;;;;;;6276712;22;19919;-83
2022/11/02 06:04:08;;;;;;;;;;;11.20;99.90;;;;;;6224206;22;19919;-83
2022/11/02 06:06:37;;;;;;;;;;;11.20;99.90;;;;;;6250914;22;19923;-83
2022/11/02 06:09:02;;;;;;;;;;;14.90;99.90;;;;;;6224492;22;19920;-83
2022/11/02 06:11:28;;;;;;;;;;;11.20;99.90;;;;;;6276834;22;20332;-83
2022/11/02 06:13:54;;;;;;;;;;;13.90;99.90;;;;;;6224568;22;19920;-83
2022/11/02 06:16:23;;;;;;;;;;;13.50;99.90;;;;;;6227574;22;19919;-83
2022/11/02 06:18:49;;;;;;;;;;;14.70;99.90;;;;;;6249956;22;19926;-83
2022/11/02 06:21:14;;;;;;;;;;;11.20;99.90;;;;;;6251539;22;19972;-83
2022/11/02 06:23:41;;;;;;;;;;;11.30;99.90;;;;;;6226865;22;20367;-82
2022/11/02 06:26:08;;;;;;;;;;;11.20;99.90;;;;;;6226301;22;19954;-82
2022/11/02 06:28:34;;;;;;;;;;;11.20;99.90;;;;;;6278896;22;19927;-82
2022/11/02 06:30:59;;;;;;;;;;;11.20;99.90;;;;;;6251854;22;19919;-85
2022/11/02 06:33:25;;;;;;;;;;;11.30;99.90;;;;;;6278674;22;19955;-83
2022/11/02 06:35:52;;;;;;;;;;;11.40;99.90;;;;;;6226432;22;19919;-84
2022/11/02 06:38:17;;;;;;;;;;;11.40;99.90;;;;;;6226060;22;19931;-84
2022/11/02 06:40:43;;;;;;;;;;;11.40;99.90;;;;;;6278840;22;20331;-84
2022/11/02 06:43:10;;;;;;;;;;;11.10;99.90;;;;;;6251775;22;19919;-83
2022/11/02 06:45:36;;;;;;;;;;;11.20;99.90;;;;;;6251669;22;20285;-84
2022/11/02 06:48:01;;;;;;;;;;;11.10;99.90;;;;;;6251740;22;20002;-83
2022/11/02 06:50:28;;;;;;;;;;;14.90;99.90;;;;;;6245928;23;19924;-83
2022/11/02 06:52:54;;;;;;;;;;;11.20;99.90;;;;;;6221465;23;19926;-84
2022/11/02 06:55:19;;;;;;;;;;;10.90;99.90;;;;;;6247277;23;19994;-83
2022/11/02 06:57:45;;;;;;;;;;;9.10;99.90;;;;;;6247302;23;20225;-83
2022/11/02 07:00:12;;;;;;;;;;;11.00;99.90;;;;;;6219409;23;19923;-83
2022/11/02 07:02:38;;;;;;;;;;;10.90;99.90;;;;;;6219549;23;19919;-83
2022/11/02 07:05:04;;;;;;;;;;;10.80;99.90;;;;;;6246760;22;19966;-83
2022/11/02 07:07:30;;;;;;;;;;;10.90;99.90;;;;;;6244795;23;20287;-83
2022/11/02 07:09:57;;;;;;;;;;;10.70;99.90;;;;;;6220266;23;19927;-83
2022/11/02 07:12:25;;;;;;;;;;;10.90;99.90;;;;;;6246365;22;19920;-83
2022/11/02 07:14:51;;;;;;;;;;;11.00;99.90;;;;;;6220091;23;20013;-83
2022/11/02 07:17:16;;;;;;;;;;;10.90;99.90;;;;;;6219092;23;19923;-83
2022/11/02 07:19:42;;;;;;;;;;;11.00;99.90;;;;;;6245803;23;19926;-83
2022/11/02 07:22:07;;;;;;;;;;;11.00;99.90;;;;;;6245487;23;19926;-84
2022/11/02 07:24:33;;;;;;;;;;;13.00;99.90;;;;;;6220945;23;19970;-84
2022/11/02 07:26:59;;;;;;;;;;;13.60;99.90;;;;;;6246840;22;19919;-84
2022/11/02 07:29:25;;;;;;;;;;;11.60;99.90;;;;;;6220229;23;19923;-84
2022/11/02 07:31:51;;;;;;;;;;;11.00;99.90;;;;;;6245060;23;19974;-84
2022/11/02 07:34:17;;;;;;;;;;;11.20;99.90;;;;;;6247245;22;19986;-83
2022/11/02 07:36:42;;;;;;;;;;;11.50;99.90;;;;;;6246582;22;19920;-83
2022/11/02 07:39:08;;;;;;;;;;;15.70;99.90;;;;;;6245663;22;19919;-83
2022/11/02 07:41:37;;;;;;;;;;;12.70;99.90;;;;;;6247568;22;19946;-83
2022/11/02 07:44:02;;;;;;;;;;;11.80;99.90;;;;;;6245771;23;19916;-83
2022/11/02 07:46:28;;;;;;;;;;;11.90;99.90;;;;;;6220767;23;19919;-83
2022/11/02 07:48:57;;;;;;;;;;;12.20;99.90;;;;;;6246536;23;20394;-83
2022/11/02 07:51:22;;;;;;;;;;;11.90;99.90;;;;;;6248097;23;20308;-84
2022/11/02 07:53:48;;;;;;;;;;;11.20;99.90;;;;;;6246747;22;19920;-82
2022/11/02 07:56:14;;;;;;;;;;;12.10;99.90;;;;;;6246378;23;19927;-82
2022/11/02 07:58:39;;;;;;;;;;;11.10;99.90;;;;;;6246843;22;19973;-83
2022/11/02 08:01:05;;;;;;;;;;;12.10;99.90;;;;;;6246437;23;19950;-82
2022/11/02 08:03:30;;;;;;;;;;;12.20;99.90;;;;;;6245787;23;19927;-83
2022/11/02 08:05:59;;;;;;;;;;;12.10;99.90;;;;;;6220013;23;20352;-83
2022/11/02 08:08:29;;;;;;;;;;;12.20;99.90;;;;;;6220647;23;19935;-82
2022/11/02 08:10:54;;;;;;;;;;;12.10;99.90;;;;;;6220573;23;19973;-83
2022/11/02 08:13:21;;;;;;;;;;;12.10;99.90;;;;;;6245595;23;20024;-82
2022/11/02 08:15:51;;;;;;;;;;;14.50;99.90;;;;;;6219344;23;19919;-82
2022/11/02 08:18:17;;;;;;;;;;;12.10;99.90;;;;;;6220492;23;19942;-83
2022/11/02 08:20:44;;;;;;;;;;;12.30;99.90;;;;;;6245879;23;20277;-82
2022/11/02 08:23:10;;;;;;;;;;;12.30;99.90;;;;;;6220235;23;19923;-83
2022/11/02 08:25:38;;;;;;;;;;;12.60;99.90;;;;;;6220164;23;19920;-82
2022/11/02 08:28:05;;;;;;;;;;;12.20;99.90;;;;;;6245756;23;19919;-83
2022/11/02 08:30:31;;;;;;;;;;;12.50;99.90;;;;;;6245451;23;20348;-83
2022/11/02 08:33:05;;;;;;;;;;;9.70;99.90;;;;;;6245636;23;19919;-82
2022/11/02 08:35:36;;;;;;;;;;;12.50;99.90;;;;;;6245418;23;19926;-83
2022/11/02 08:38:02;;;;;;;;;;;12.50;99.90;;;;;;6220398;23;19920;-83
2022/11/02 08:40:28;;;;;;;;;;;12.50;99.90;;;;;;6195378;23;19926;-83
2022/11/02 08:43:13;;;;;;;;;;;12.70;99.90;;;;;;6245652;23;19914;-83
2022/11/02 08:45:40;;;;;;;;;;;16.80;99.90;;;;;;6245555;23;19920;-83
2022/11/02 08:48:06;;;;;;;;;;;14.80;99.90;;;;;;6245464;23;20003;-83
2022/11/02 08:50:32;;;;;;;;;;;12.60;99.90;;;;;;6244631;23;19920;-83
2022/11/02 08:53:01;;;;;;;;;;;16.60;99.90;;;;;;6245226;23;20241;-83
2022/11/02 08:55:26;;;;;;;;;;;13.10;99.90;;;;;;6246945;22;19989;-82
2022/11/02 08:58:03;;;;;;;;;;;13.70;99.90;;;;;;6245339;23;19920;-83
2022/11/02 09:00:30;;;;;;;;;;;16.40;99.90;;;;;;6215262;23;19919;-83
2022/11/02 09:02:59;;;;;;;;;;;14.30;99.90;;;;;;6246555;22;19963;-82
2022/11/02 09:05:25;;;;;;;;;;;14.90;99.90;;;;;;6245451;23;19924;-83
2022/11/02 09:07:59;;;;;;;;;;;15.80;99.90;;;;;;6245121;23;19981;-83
2022/11/02 09:10:25;;;;;;;;;;;14.40;99.90;;;;;;6244883;23;19926;-83
2022/11/02 09:12:51;;;;;;;;;;;17.70;99.90;;;;;;6243385;23;20260;-84
2022/11/02 09:15:17;;;;;;;;;;;11.70;99.90;;;;;;6243965;23;19927;-83
2022/11/02 09:17:45;;;;;;;;;;;14.10;99.90;;;;;;6219293;23;20241;-83
2022/11/02 09:20:10;;;;;;;;;;;14.00;99.90;;;;;;6218614;23;19926;-83
2022/11/02 09:22:36;;;;;;;;;;;13.90;99.90;;;;;;6244690;23;19978;-82
2022/11/02 09:25:06;;;;;;;;;;;13.80;99.90;;;;;;6245141;23;19919;-82
2022/11/02 09:27:31;;;;;;;;;;;13.60;99.90;;;;;;6244337;23;19923;-83
2022/11/02 09:29:57;;;;;;;;;;;16.10;99.90;;;;;;6246475;22;19974;-83
2022/11/02 09:32:26;;;;;;;;;;;13.60;99.90;;;;;;6246385;22;19927;-83
2022/11/02 09:34:54;;;;;;;;;;;13.60;99.90;;;;;;6244919;23;19923;-83
2022/11/02 09:37:20;;;;;;;;;;;13.80;99.90;;;;;;6218690;23;19974;-82
2022/11/02 09:39:45;;;;;;;;;;;13.70;99.90;;;;;;6245084;23;20328;-82
2022/11/02 09:42:15;;;;;;;;;;;13.50;99.90;;;;;;6219307;23;20229;-82
2022/11/02 09:44:54;;;;;;;;;;;14.00;99.90;;;;;;6219347;23;19945;-83
2022/11/02 09:47:25;;;;;;;;;;;13.70;99.90;;;;;;6244896;23;19986;-83
2022/11/02 09:49:55;;;;;;;;;;;13.70;99.90;;;;;;6265514;22;20386;-83
2022/11/02 09:52:31;;;;;;;;;;;13.70;99.90;;;;;;6251882;22;19926;-84
2022/11/02 09:54:58;;;;;;;;;;;13.70;99.90;;;;;;6227431;22;19931;-83
2022/11/02 09:57:28;;;;;;;;;;;17.50;99.90;;;;;;6226454;22;19999;-83
2022/11/02 09:59:56;;;;;;;;;;;14.50;99.90;;;;;;6252070;22;19919;-83
2022/11/02 10:02:37;;;;;;;;;;;14.20;99.90;;;;;;6226588;22;19949;-83
2022/11/02 10:05:41;;;;;;;;;;;14.50;99.90;;;;;;6250326;22;19984;-83
2022/11/02 10:08:10;;;;;;;;;;;14.30;99.90;;;;;;6124369;23;19925;-83
2022/11/02 10:10:37;;;;;;;;;;;14.30;99.90;;;;;;6125751;23;19928;-83
2022/11/02 10:13:14;;;;;;;;;;;15.10;99.90;;;;;;6101729;23;19928;-83
2022/11/02 10:15:44;;;;;;;;;;;14.00;99.90;;;;;;6101455;23;20003;-83
2022/11/02 10:18:13;;;;;;;;;;;13.40;99.90;;;;;;6125975;23;19928;-83
2022/11/02 10:20:43;;;;;;;;;;;13.90;99.90;;;;;;6100980;23;19995;-83
2022/11/02 10:23:15;;;;;;;;;;;13.90;99.90;;;;;;6126035;23;19954;-82
2022/11/02 10:25:41;;;;;;;;;;;13.90;99.90;;;;;;6077418;23;19924;-83
2022/11/02 10:28:13;;;;;;;;;;;13.90;99.90;;;;;;6053362;23;19925;-82
2022/11/02 10:30:39;;;;;;;;;;;14.00;99.90;;;;;;6077018;23;19921;-82
2022/11/02 10:33:14;;;;;;;;;;;14.20;99.90;;;;;;6102049;23;19932;-82
2022/11/02 10:35:40;;;;;;;;;;;14.30;99.90;;;;;;6101384;23;19925;-83
2022/11/02 10:38:14;;;;;;;;;;;14.40;99.90;;;;;;6154986;22;19942;-83
2022/11/02 10:40:52;;;;;;;;;;;14.40;99.90;;;;;;6278909;22;19982;-83
2022/11/02 10:43:20;;;;;;;;;;;14.60;99.90;;;;;;6278662;22;19973;-83
2022/11/02 10:45:58;;;;;;;;;;;14.70;99.90;;;;;;6251952;22;19959;-83
2022/11/02 10:48:32;;;;;;;;;;;14.70;99.90;;;;;;6226114;22;19981;-83
2022/11/02 10:51:08;;;;;;;;;;;14.60;99.90;;;;;;6226155;22;19919;-82
2022/11/02 10:53:35;;;;;;;;;;;15.00;99.90;;;;;;6226175;22;19927;-82
2022/11/02 10:56:20;;;;;;;;;;;14.50;99.90;;;;;;6251908;22;19919;-82
2022/11/02 10:58:58;;;;;;;;;;;14.50;99.90;;;;;;6224910;22;19943;-83
2022/11/02 11:01:23;;;;;;;;;;;14.70;99.90;;;;;;6278153;22;19997;-83
2022/11/02 11:03:54;;;;;;;;;;;17.10;99.90;;;;;;6251635;22;19974;-82
2022/11/02 11:06:19;;;;;;;;;;;14.80;99.90;;;;;;6251258;22;20332;-84
2022/11/02 11:08:48;;;;;;;;;;;18.00;99.90;;;;;;6251338;22;19926;-83
2022/11/02 11:11:20;;;;;;;;;;;17.60;99.90;;;;;;6250165;22;19972;-83
2022/11/02 11:14:06;;;;;;;;;;;14.90;99.90;;;;;;6224645;22;19920;-83
2022/11/02 11:16:34;;;;;;;;;;;15.00;99.90;;;;;;6275341;22;19926;-83
2022/11/02 11:18:59;;;;;;;;;;;15.50;99.90;;;;;;6226153;22;19919;-83
2022/11/02 11:21:34;;;;;;;;;;;18.70;99.90;;;;;;6248836;22;20224;-83
2022/11/02 11:24:18;;;;;;;;;;;15.90;99.90;;;;;;6249701;22;20350;-83
2022/11/02 11:26:44;;;;;;;;;;;15.20;99.90;;;;;;6249400;22;19915;-83
2022/11/02 11:29:21;;;;;;;;;;;18.90;99.90;;;;;;6250997;22;19919;-83
2022/11/02 11:31:46;;;;;;;;;;;16.30;99.90;;;;;;6250524;22;20330;-83
2022/11/02 11:34:21;;;;;;;;;;;17.30;99.90;;;;;;6250011;22;19924;-83
2022/11/02 11:36:47;;;;;;;;;;;16.00;99.90;;;;;;6275294;22;19923;-83
2022/11/02 11:39:26;;;;;;;;;;;15.00;99.90;;;;;;6278426;22;19941;-83
2022/11/02 11:41:52;;;;;;;;;;;14.90;99.90;;;;;;6224286;22;19930;-83
2022/11/02 11:44:18;;;;;;;;;;;14.90;99.90;;;;;;6225410;22;19990;-83
2022/11/02 11:46:48;;;;;;;;;;;14.90;99.90;;;;;;6249305;22;20221;-83
2022/11/02 11:49:25;;;;;;;;;;;14.80;99.90;;;;;;6249469;22;19931;-82
2022/11/02 11:51:52;;;;;;;;;;;15.00;99.90;;;;;;6224953;22;19920;-83
2022/11/02 11:54:23;;;;;;;;;;;14.90;99.90;;;;;;6250425;22;19919;-83
2022/11/02 11:56:51;;;;;;;;;;;14.80;99.90;;;;;;6249891;22;19946;-83
2022/11/02 11:59:27;;;;;;;;;;;12.90;99.90;;;;;;6250699;22;19926;-83
2022/11/02 12:01:55;;;;;;;;;;;15.00;99.90;;;;;;6276766;22;19919;-83
2022/11/02 12:04:31;;;;;;;;;;;14.60;99.90;;;;;;6278723;22;19920;-83
2022/11/02 12:07:04;;;;;;;;;;;14.80;99.90;;;;;;6225127;22;20012;-82
2022/11/02 12:09:48;;;;;;;;;;;14.50;99.90;;;;;;6278627;22;20251;-82
2022/11/02 12:12:17;;;;;;;;;;;14.60;99.90;;;;;;6250976;22;20350;-82
2022/11/02 12:14:51;;;;;;;;;;;14.50;99.90;;;;;;6225244;22;19926;-81
2022/11/02 12:17:23;;;;;;;;;;;14.50;99.90;;;;;;6278095;22;19998;-82
2022/11/02 12:19:49;;;;;;;;;;;14.40;99.90;;;;;;6225557;22;19919;-82
2022/11/02 12:22:33;;;;;;;;;;;15.00;99.90;;;;;;6250569;22;19926;-82
2022/11/02 12:25:08;;;;;;;;;;;14.50;99.90;;;;;;6251405;22;19945;-82
2022/11/02 12:27:52;;;;;;;;;;;14.70;99.90;;;;;;6252065;22;19994;-82
2022/11/02 12:30:19;;;;;;;;;;;15.00;99.90;;;;;;6251194;22;19919;-82
2022/11/02 12:33:17;;;;;;;;;;;15.30;99.90;;;;;;6250545;22;19945;-82
2022/11/02 12:35:49;;;;;;;;;;;15.30;99.90;;;;;;6076453;23;19921;-82
2022/11/02 12:38:26;;;;;;;;;;;16.70;99.90;;;;;;6076448;23;19921;-82
2022/11/02 12:41:10;;;;;;;;;;;15.20;99.90;;;;;;6100873;23;19928;-83
2022/11/02 12:43:36;;;;;;;;;;;15.00;99.90;;;;;;6076259;23;20379;-82
2022/11/02 12:46:20;;;;;;;;;;;14.90;99.90;;;;;;6076698;23;19921;-82
2022/11/02 12:48:52;;;;;;;;;;;15.20;99.90;;;;;;6075800;23;20393;-81
2022/11/02 12:51:20;;;;;;;;;;;14.70;99.90;;;;;;6100451;23;19924;-82
2022/11/02 12:53:55;;;;;;;;;;;14.70;99.90;;;;;;6125094;23;19925;-82
2022/11/02 12:56:33;;;;;;;;;;;14.80;99.90;;;;;;6101632;23;19992;-82
2022/11/02 12:58:59;;;;;;;;;;;14.80;99.90;;;;;;6102407;23;19924;-81
2022/11/02 13:01:27;;;;;;;;;;;14.70;99.90;;;;;;6078185;23;19928;-82
2022/11/02 13:03:56;;;;;;;;;;;14.70;99.90;;;;;;6078812;23;19961;-82
2022/11/02 13:06:28;;;;;;;;;;;14.70;99.90;;;;;;6125613;23;19992;-82
2022/11/02 13:08:58;;;;;;;;;;;14.80;99.90;;;;;;6100199;23;20008;-82
2022/11/02 13:11:29;;;;;;;;;;;14.90;99.90;;;;;;6158951;22;19919;-81
2022/11/02 13:13:56;;;;;;;;;;;14.10;99.90;;;;;;6277529;22;19927;-81
2022/11/02 13:16:27;;;;;;;;;;;15.00;99.90;;;;;;6277367;22;19990;-82
2022/11/02 13:18:53;;;;;;;;;;;15.10;99.90;;;;;;6250252;22;19926;-82
2022/11/02 13:21:26;;;;;;;;;;;15.00;99.90;;;;;;6250326;22;20221;-82
2022/11/02 13:23:55;;;;;;;;;;;15.00;99.90;;;;;;6277464;22;19942;-82
2022/11/02 13:26:29;;;;;;;;;;;15.80;99.90;;;;;;6250362;22;19947;-81
2022/11/02 13:28:57;;;;;;;;;;;15.00;99.90;;;;;;6249699;22;19926;-82
2022/11/02 13:31:27;;;;;;;;;;;14.90;99.90;;;;;;6277378;22;19926;-82
2022/11/02 13:33:53;;;;;;;;;;;14.80;99.90;;;;;;6250120;22;19943;-81
2022/11/02 13:36:19;;;;;;;;;;;14.80;99.90;;;;;;6225205;22;20324;-81
2022/11/02 13:38:44;;;;;;;;;;;15.10;99.90;;;;;;6225091;22;20032;-81
2022/11/02 13:41:10;;;;;;;;;;;17.20;99.90;;;;;;6250163;22;19954;-81
2022/11/02 13:43:36;;;;;;;;;;;14.80;99.90;;;;;;6249375;22;20385;-82
2022/11/02 13:46:10;;;;;;;;;;;14.80;99.90;;;;;;6250975;22;19920;-81
2022/11/02 13:48:47;;;;;;;;;;;14.60;99.90;;;;;;6225531;22;19930;-81
2022/11/02 13:51:19;;;;;;;;;;;14.70;99.90;;;;;;6249506;22;20352;-81
2022/11/02 13:53:50;;;;;;;;;;;14.70;99.90;;;;;;6250015;22;19954;-81
2022/11/02 13:56:21;;;;;;;;;;;17.70;99.90;;;;;;6224852;22;19919;-82
2022/11/02 13:58:55;;;;;;;;;;;14.90;99.90;;;;;;6277323;22;19921;-82
2022/11/02 14:01:25;;;;;;;;;;;14.80;99.90;;;;;;6277505;22;19919;-82
2022/11/02 14:03:52;;;;;;;;;;;14.70;99.90;;;;;;6250013;22;19969;-82
2022/11/02 14:06:19;;;;;;;;;;;17.80;99.90;;;;;;6277003;22;19919;-81
2022/11/02 14:09:00;;;;;;;;;;;17.90;99.90;;;;;;6224609;22;19919;-82
2022/11/02 14:11:46;;;;;;;;;;;14.70;99.90;;;;;;6277535;22;20248;-81
2022/11/02 14:14:19;;;;;;;;;;;17.20;99.90;;;;;;6248271;22;19925;-82
2022/11/02 14:16:45;;;;;;;;;;;15.20;99.90;;;;;;6224326;22;20260;-81
2022/11/02 14:19:16;;;;;;;;;;;17.50;99.90;;;;;;6249596;22;19925;-82
2022/11/02 14:21:48;;;;;;;;;;;15.50;99.90;;;;;;6224280;22;19958;-82
2022/11/02 14:24:32;;;;;;;;;;;15.40;99.90;;;;;;6249631;22;19994;-82
2022/11/02 14:27:10;;;;;;;;;;;15.20;99.90;;;;;;6224449;22;19941;-82
2022/11/02 14:29:43;;;;;;;;;;;15.20;99.90;;;;;;6277071;22;20328;-81
2022/11/02 14:32:12;;;;;;;;;;;14.90;99.90;;;;;;6251034;22;19926;-82
2022/11/02 14:34:42;;;;;;;;;;;15.10;99.90;;;;;;6277173;22;19919;-81
2022/11/02 14:37:23;;;;;;;;;;;16.10;99.90;;;;;;6250507;22;19919;-82
2022/11/02 14:40:04;;;;;;;;;;;14.50;99.90;;;;;;6251622;22;20430;-81
2022/11/02 14:42:42;;;;;;;;;;;14.50;99.90;;;;;;6251054;22;19962;-81
2022/11/02 14:45:14;;;;;;;;;;;14.40;99.90;;;;;;6252635;22;19919;-82